Time;durP1;ratioP1;P1;durP2;ratioP2;P2;SDS_P1;SDS_P2;PMS_P1;PMS_P2;Temp;Humidity;BMP_temperature;BMP_pressure;BME280_temperature;BME280_humidity;BME280_pressure;Samples;Min_cycle;Max_cycle;Signal;HPM_P1;HPM_P2
2022/03/28 00:02:21;;;;;;;;;;;;;;;18.65;44.70;102782.38;5123000;28;20005;-54
2022/03/28 00:04:46;;;;;;;;;;;;;;;18.66;44.54;102780.53;5124721;28;19947;-56
2022/03/28 00:07:11;;;;;;;;;;;;;;;18.65;44.72;102776.13;5124396;28;19908;-54
2022/03/28 00:09:37;;;;;;;;;;;;;;;18.65;44.32;102776.97;5124141;28;20014;-55
2022/03/28 00:12:02;;;;;;;;;;;;;;;18.65;44.61;102770.75;5127062;28;19915;-54
2022/03/28 00:14:27;;;;;;;;;;;;;;;18.63;44.47;102770.00;5128240;28;19998;-52
2022/03/28 00:16:55;;;;;;;;;;;;;;;18.63;44.42;102772.69;5128414;28;19914;-55
2022/03/28 00:19:20;;;;;;;;;;;;;;;18.63;44.40;102770.00;5108222;28;19908;-51
2022/03/28 00:21:45;;;;;;;;;;;;;;;18.61;44.42;102762.03;5126939;28;19969;-52
2022/03/28 00:24:10;;;;;;;;;;;;;;;18.62;44.40;102762.91;5128084;28;19955;-54
2022/03/28 00:26:35;;;;;;;;;;;;;;;18.60;44.47;102768.38;5127618;28;19907;-56
2022/03/28 00:29:00;;;;;;;;;;;;;;;18.60;44.18;102760.31;5127591;28;19992;-52
2022/03/28 00:31:25;;;;;;;;;;;;;;;18.59;44.48;102763.13;5128139;28;19907;-53
2022/03/28 00:33:51;;;;;;;;;;;;;;;18.59;44.44;102763.13;5128187;28;20537;-55
2022/03/28 00:36:16;;;;;;;;;;;;;;;18.58;44.42;102766.81;5128104;28;19929;-53
2022/03/28 00:38:41;;;;;;;;;;;;;;;18.58;44.38;102761.41;5127780;28;19911;-55
2022/03/28 00:41:06;;;;;;;;;;;;;;;18.57;44.47;102765.09;5126250;28;19915;-51
2022/03/28 00:43:31;;;;;;;;;;;;;;;18.55;44.27;102753.56;5128037;28;19914;-54
2022/03/28 00:45:57;;;;;;;;;;;;;;;18.56;44.28;102760.66;5118624;28;19931;-54
2022/03/28 00:48:22;;;;;;;;;;;;;;;18.55;44.26;102751.72;5109350;28;19912;-55
2022/03/28 00:50:47;;;;;;;;;;;;;;;18.55;44.21;102745.50;5128050;28;19908;-55
2022/03/28 00:53:13;;;;;;;;;;;;;;;18.53;44.23;102748.31;5126370;28;20003;-52
2022/03/28 00:55:38;;;;;;;;;;;;;;;18.53;44.14;102744.78;5127603;28;19907;-51
2022/03/28 00:58:03;;;;;;;;;;;;;;;18.53;44.17;102747.47;5127403;28;19908;-51
2022/03/28 01:00:28;;;;;;;;;;;;;;;18.51;44.22;102749.41;5127352;28;19907;-55
2022/03/28 01:02:53;;;;;;;;;;;;;;;18.51;44.23;102744.88;5127710;28;19908;-51
2022/03/28 01:05:19;;;;;;;;;;;;;;;18.51;44.16;102735.94;5127744;28;19918;-52
2022/03/28 01:07:45;;;;;;;;;;;;;;;18.49;44.05;102736.91;5127546;28;19946;-53
2022/03/28 01:10:10;;;;;;;;;;;;;;;18.48;44.26;102737.91;5127454;28;19933;-56
2022/03/28 01:12:36;;;;;;;;;;;;;;;18.49;44.23;102741.47;5126698;28;19934;-55
2022/03/28 01:15:01;;;;;;;;;;;;;;;18.48;44.24;102742.44;5108766;28;20219;-56
2022/03/28 01:20:11;;;;;;;;;;;;;;;18.46;44.16;102725.53;5113205;28;19919;-55
2022/03/28 01:22:36;;;;;;;;;;;;;;;18.46;44.01;102726.38;5105455;28;19908;-54
2022/03/28 01:25:03;;;;;;;;;;;;;;;18.45;44.19;102721.13;5106918;28;19923;-56
2022/03/28 01:27:28;;;;;;;;;;;;;;;18.44;43.98;102714.88;5105958;28;19950;-55
2022/03/28 01:29:54;;;;;;;;;;;;;;;18.43;43.95;102710.47;5105973;28;19908;-53
2022/03/28 01:32:19;;;;;;;;;;;;;;;18.42;43.95;102697.97;5106626;28;19947;-52
2022/03/28 01:34:44;;;;;;;;;;;;;;;18.42;44.08;102694.44;5106823;28;19919;-55
2022/03/28 01:37:09;;;;;;;;;;;;;;;18.41;43.93;102703.50;5106633;28;19931;-56
2022/03/28 01:39:35;;;;;;;;;;;;;;;18.40;44.24;102689.19;5105128;28;19908;-53
2022/03/28 01:42:00;;;;;;;;;;;;;;;18.39;44.05;102690.16;5105892;28;19915;-53
2022/03/28 01:44:25;;;;;;;;;;;;;;;18.38;43.92;102685.72;5105828;28;19915;-53
2022/03/28 01:46:50;;;;;;;;;;;;;;;18.38;44.03;102683.03;5121254;28;19904;-52
2022/03/28 01:49:16;;;;;;;;;;;;;;;18.39;44.00;102689.28;5126480;28;19912;-52
2022/03/28 01:51:42;;;;;;;;;;;;;;;18.36;43.95;102678.78;5126683;28;19907;-53
2022/03/28 01:54:07;;;;;;;;;;;;;;;18.35;44.11;102683.31;5126649;28;19908;-53
2022/03/28 01:56:32;;;;;;;;;;;;;;;18.36;43.79;102687.72;5126253;28;19975;-54
2022/03/28 01:58:58;;;;;;;;;;;;;;;18.34;44.06;102676.19;5125090;28;19908;-54
2022/03/28 02:01:23;;;;;;;;;;;;;;;18.30;43.97;102666.63;5126434;28;19912;-55
2022/03/28 02:03:48;;;;;;;;;;;;;;;18.33;43.97;102671.78;5126367;28;19915;-53
2022/03/28 02:06:13;;;;;;;;;;;;;;;18.26;43.95;102667.00;5126390;28;19914;-54
2022/03/28 02:08:38;;;;;;;;;;;;;;;18.31;43.92;102679.16;5125985;28;19908;-55
2022/03/28 02:11:03;;;;;;;;;;;;;;;18.31;43.72;102671.06;5125912;28;19930;-52
2022/03/28 02:13:29;;;;;;;;;;;;;;;18.32;43.89;102671.91;5126204;28;19916;-55
2022/03/28 02:15:54;;;;;;;;;;;;;;;18.31;43.74;102664.78;5125537;28;19911;-56
2022/03/28 02:18:19;;;;;;;;;;;;;;;18.30;43.74;102661.25;5125522;28;19911;-55
2022/03/28 02:20:44;;;;;;;;;;;;;;;18.29;43.49;102664.06;5126217;28;19928;-56
2022/03/28 02:23:09;;;;;;;;;;;;;;;18.29;43.69;102661.38;5126024;28;19911;-52
2022/03/28 02:25:37;;;;;;;;;;;;;;;18.28;43.63;102659.69;5126259;28;19911;-55
2022/03/28 02:28:02;;;;;;;;;;;;;;;18.27;43.58;102658.81;5125474;28;19908;-54
2022/03/28 02:30:27;;;;;;;;;;;;;;;18.26;43.74;102662.47;5125816;28;19946;-56
2022/03/28 02:32:52;;;;;;;;;;;;;;;18.26;43.70;102665.16;5125605;28;19979;-56
2022/03/28 02:35:18;;;;;;;;;;;;;;;18.26;43.73;102667.00;5125738;28;19974;-56
2022/03/28 02:37:43;;;;;;;;;;;;;;;18.24;43.48;102654.53;5125707;28;20354;-54
2022/03/28 02:40:08;;;;;;;;;;;;;;;18.24;43.70;102653.66;5125627;27;20387;-53
2022/03/28 02:42:33;;;;;;;;;;;;;;;18.23;43.52;102641.19;5125277;28;20393;-55
2022/03/28 02:44:59;;;;;;;;;;;;;;;18.22;43.64;102639.47;5125222;28;19968;-53
2022/03/28 02:47:24;;;;;;;;;;;;;;;18.22;43.68;102634.06;5124683;28;19922;-52
2022/03/28 02:49:50;;;;;;;;;;;;;;;18.21;43.38;102638.59;5124106;28;19908;-54
2022/03/28 02:52:15;;;;;;;;;;;;;;;18.21;43.58;102635.06;5125455;28;19922;-53
2022/03/28 02:54:40;;;;;;;;;;;;;;;18.20;43.60;102625.28;5125773;28;19908;-53
2022/03/28 02:57:06;;;;;;;;;;;;;;;18.19;43.53;102626.25;5124936;27;19907;-55
2022/03/28 02:59:31;;;;;;;;;;;;;;;18.18;43.57;102617.34;5123957;28;20002;-56
2022/03/28 03:01:56;;;;;;;;;;;;;;;18.18;43.49;102622.72;5125214;28;20350;-55
2022/03/28 03:04:21;;;;;;;;;;;;;;;18.17;43.37;102623.69;5125483;28;19946;-54
2022/03/28 03:06:46;;;;;;;;;;;;;;;18.16;43.49;102619.28;5125401;28;19911;-55
2022/03/28 03:09:11;;;;;;;;;;;;;;;18.16;43.49;102615.72;5124844;28;19907;-54
2022/03/28 03:11:37;;;;;;;;;;;;;;;18.16;43.30;102610.34;5124705;28;20015;-53
2022/03/28 03:14:03;;;;;;;;;;;;;;;18.15;43.38;102609.50;5125098;28;19915;-55
2022/03/28 03:16:28;;;;;;;;;;;;;;;18.14;43.24;102607.78;5124589;28;19907;-52
2022/03/28 03:18:54;;;;;;;;;;;;;;;18.14;43.45;102597.03;5124574;28;19919;-53
2022/03/28 03:21:20;;;;;;;;;;;;;;;18.13;43.25;102597.13;5125138;28;19908;-54
2022/03/28 03:23:45;;;;;;;;;;;;;;;18.11;43.13;102594.56;5124697;28;19919;-56
2022/03/28 03:26:10;;;;;;;;;;;;;;;18.11;43.06;102591.88;5124543;28;19907;-51
2022/03/28 03:28:35;;;;;;;;;;;;;;;18.11;43.18;102588.34;5124678;28;19929;-53
2022/03/28 03:31:01;;;;;;;;;;;;;;;18.10;43.11;102582.09;5124669;28;19900;-56
2022/03/28 03:33:26;;;;;;;;;;;;;;;18.09;43.26;102577.66;5124706;28;19919;-56
2022/03/28 03:35:51;;;;;;;;;;;;;;;18.09;43.30;102580.34;5124968;28;20007;-56
2022/03/28 03:38:16;;;;;;;;;;;;;;;18.09;43.08;102580.34;5124367;28;19908;-56
2022/03/28 03:40:41;;;;;;;;;;;;;;;18.07;43.25;102576.94;5124287;28;19912;-52
2022/03/28 03:43:07;;;;;;;;;;;;;;;18.08;43.28;102583.19;5123258;28;19907;-54
2022/03/28 03:45:32;;;;;;;;;;;;;;;18.07;43.27;102582.31;5118443;28;19916;-55
2022/03/28 03:47:58;;;;;;;;;;;;;;;18.06;43.23;102574.38;5103981;28;19915;-55
2022/03/28 03:50:23;;;;;;;;;;;;;;;18.06;43.04;102577.94;5104252;28;19919;-55
2022/03/28 03:52:50;;;;;;;;;;;;;;;18.05;42.93;102578.03;5103930;28;19912;-56
2022/03/28 03:55:16;;;;;;;;;;;;;;;18.05;43.13;102569.97;5104598;28;19920;-53
2022/03/28 03:57:42;;;;;;;;;;;;;;;18.04;43.11;102568.25;5103502;28;19935;-55
2022/03/28 04:00:08;;;;;;;;;;;;;;;18.04;43.02;102563.72;5103761;28;19915;-54
2022/03/28 04:02:34;;;;;;;;;;;;;;;18.03;42.94;102563.84;5104222;28;19908;-54
2022/03/28 04:04:59;;;;;;;;;;;;;;;18.03;42.93;102566.53;5104171;28;20266;-53
2022/03/28 04:07:24;;;;;;;;;;;;;;;18.02;43.16;102565.69;5103917;28;19916;-54
2022/03/28 04:09:49;;;;;;;;;;;;;;;18.01;43.11;102566.69;5103822;28;19937;-55
2022/03/28 04:12:15;;;;;;;;;;;;;;;18.01;43.17;102564.00;5103484;28;19916;-53
2022/03/28 04:14:40;;;;;;;;;;;;;;;18.00;43.15;102567.63;5119402;28;20004;-56
2022/03/28 04:17:05;;;;;;;;;;;;;;;17.99;43.07;102558.72;5123191;28;19916;-55
2022/03/28 04:19:30;;;;;;;;;;;;;;;17.99;42.92;102549.78;5123050;28;19957;-54
2022/03/28 04:21:55;;;;;;;;;;;;;;;17.98;43.02;102551.63;5103671;28;19908;-55
2022/03/28 04:24:20;;;;;;;;;;;;;;;17.98;42.99;102556.16;5103567;28;19981;-56
2022/03/28 04:26:46;;;;;;;;;;;;;;;17.99;42.73;102564.09;5118969;28;19907;-56
2022/03/28 04:29:11;;;;;;;;;;;;;;;17.99;42.73;102564.09;5123284;28;19911;-54
2022/03/28 04:31:40;;;;;;;;;;;;;;;17.99;42.89;102556.03;5123654;28;19912;-53
2022/03/28 04:34:05;;;;;;;;;;;;;;;17.98;42.79;102562.38;5114448;28;20014;-56
2022/03/28 04:36:30;;;;;;;;;;;;;;;17.98;42.68;102562.38;5117579;28;19935;-55
2022/03/28 04:38:55;;;;;;;;;;;;;;;17.99;42.96;102563.25;5119528;28;20257;-53
2022/03/28 04:41:20;;;;;;;;;;;;;;;17.98;42.88;102554.31;5115603;28;19908;-55
2022/03/28 04:43:45;;;;;;;;;;;;;;;17.98;42.86;102548.94;5112812;28;19908;-55
2022/03/28 04:46:11;;;;;;;;;;;;;;;17.98;42.76;102554.31;5115191;28;19959;-53
2022/03/28 04:48:36;;;;;;;;;;;;;;;17.99;42.87;102555.16;5123092;28;19912;-53
2022/03/28 04:51:01;;;;;;;;;;;;;;;18.00;43.02;102554.19;5123741;28;20086;-55
2022/03/28 04:53:26;;;;;;;;;;;;;;;17.98;42.86;102554.31;5123576;28;19957;-54
2022/03/28 04:55:51;;;;;;;;;;;;;;;17.98;43.10;102553.47;5123244;28;19963;-56
2022/03/28 04:58:18;;;;;;;;;;;;;;;17.98;43.14;102553.47;5120355;28;19958;-56
2022/03/28 05:00:43;;;;;;;;;;;;;;;17.97;43.23;102544.53;5125548;28;19916;-56
2022/03/28 05:03:08;;;;;;;;;;;;;;;17.97;43.20;102539.16;5124388;28;20256;-53
2022/03/28 05:05:33;;;;;;;;;;;;;;;17.96;43.50;102540.09;5124445;28;20264;-57
2022/03/28 05:07:58;;;;;;;;;;;;;;;17.96;43.43;102537.41;5126876;28;19908;-56
2022/03/28 05:10:24;;;;;;;;;;;;;;;17.96;43.38;102541.94;5123057;28;19911;-56
2022/03/28 05:12:49;;;;;;;;;;;;;;;17.94;43.37;102536.69;5118745;28;20006;-55
2022/03/28 05:15:14;;;;;;;;;;;;;;;17.95;43.60;102542.94;5123147;28;19934;-55
2022/03/28 05:17:39;;;;;;;;;;;;;;;17.94;43.57;102536.69;5123639;28;19990;-56
2022/03/28 05:20:05;;;;;;;;;;;;;;;17.93;43.67;102548.44;5125656;28;19911;-56
2022/03/28 05:22:30;;;;;;;;;;;;;;;17.93;43.47;102552.97;5116912;28;19914;-55
2022/03/28 05:24:56;;;;;;;;;;;;;;;17.92;43.62;102546.72;5118315;28;19954;-56
2022/03/28 05:27:21;;;;;;;;;;;;;;;17.93;43.58;102550.28;5119148;28;19908;-55
2022/03/28 05:29:47;;;;;;;;;;;;;;;17.92;43.76;102543.16;5123337;28;19946;-56
2022/03/28 05:32:12;;;;;;;;;;;;;;;17.91;43.74;102541.47;5123972;28;19958;-55
2022/03/28 05:34:37;;;;;;;;;;;;;;;17.91;43.64;102536.09;5118175;28;19908;-56
2022/03/28 05:37:06;;;;;;;;;;;;;;;17.90;43.89;102535.22;5123796;28;19918;-55
2022/03/28 05:39:32;;;;;;;;;;;;;;;17.89;43.92;102525.47;5123660;28;19914;-56
2022/03/28 05:41:57;;;;;;;;;;;;;;;17.89;43.79;102524.59;5117350;28;19908;-55
2022/03/28 05:44:22;;;;;;;;;;;;;;;17.89;43.95;102519.22;5123445;28;19912;-56
2022/03/28 05:46:51;;;;;;;;;;;;;;;17.88;43.87;102521.06;5123619;28;19907;-56
2022/03/28 05:49:16;;;;;;;;;;;;;;;17.87;43.84;102519.31;5123451;28;19916;-55
2022/03/28 05:51:41;;;;;;;;;;;;;;;17.86;43.91;102509.53;5117792;28;19912;-54
2022/03/28 05:54:07;;;;;;;;;;;;;;;17.87;43.85;102521.16;5120580;27;19947;-56
2022/03/28 05:56:32;;;;;;;;;;;;;;;17.86;44.06;102517.63;5122955;28;19935;-54
2022/03/28 05:58:57;;;;;;;;;;;;;;;17.85;44.00;102518.59;5122912;28;19908;-55
2022/03/28 06:01:22;;;;;;;;;;;;;;;17.84;44.11;102506.13;5125690;28;19907;-53
2022/03/28 06:03:47;;;;;;;;;;;;;;;17.84;44.00;102508.84;5116505;28;19915;-51
2022/03/28 06:06:13;;;;;;;;;;;;;;;17.84;44.07;102502.56;5113285;28;20010;-54
2022/03/28 06:08:38;;;;;;;;;;;;;;;17.83;44.15;102507.09;5114575;28;19930;-60
2022/03/28 06:11:03;;;;;;;;;;;;;;;17.82;44.04;102507.22;5110507;28;19908;-59
2022/03/28 06:13:29;;;;;;;;;;;;;;;17.82;43.95;102516.16;5119851;28;20011;-59
2022/03/28 06:15:54;;;;;;;;;;;;;;;17.81;43.97;102509.06;5123457;28;19999;-52
2022/03/28 06:18:19;;;;;;;;;;;;;;;17.82;43.93;102510.78;5111672;28;19907;-54
2022/03/28 06:20:44;;;;;;;;;;;;;;;17.83;43.94;102511.63;5117430;28;19916;-55
2022/03/28 06:23:12;;;;;;;;;;;;;;;17.83;44.08;102506.25;5120629;28;19930;-59
2022/03/28 06:25:37;;;;;;;;;;;;;;;17.83;44.08;102490.94;5120417;28;19927;-54
2022/03/28 06:28:02;;;;;;;;;;;;;;;17.83;43.97;102490.09;5118769;28;19907;-56
2022/03/28 06:30:27;;;;;;;;;;;;;;;17.84;43.96;102502.56;5121792;28;19923;-56
2022/03/28 06:32:53;;;;;;;;;;;;;;;17.84;43.92;102506.13;5125191;27;19933;-55
2022/03/28 06:35:18;;;;;;;;;;;;;;;17.83;44.19;102500.84;5125458;28;19914;-55
2022/03/28 06:37:43;;;;;;;;;;;;;;;17.83;43.87;102509.78;5125579;28;19915;-56
2022/03/28 06:40:09;;;;;;;;;;;;;;;17.83;43.86;102520.53;5125375;28;19914;-56
2022/03/28 06:42:34;;;;;;;;;;;;;;;17.83;43.99;102511.63;5124682;28;20353;-55
2022/03/28 06:44:59;;;;;;;;;;;;;;;17.82;43.99;102521.53;5124823;28;19908;-55
2022/03/28 06:47:25;;;;;;;;;;;;;;;17.81;43.81;102533.28;5119290;28;19951;-56
2022/03/28 06:49:50;;;;;;;;;;;;;;;17.80;43.84;102531.56;5105184;28;20033;-56
2022/03/28 06:52:15;;;;;;;;;;;;;;;17.80;43.89;102522.63;5104727;28;19916;-56
2022/03/28 06:54:40;;;;;;;;;;;;;;;17.80;43.71;102519.94;5105013;28;19965;-56
2022/03/28 06:57:06;;;;;;;;;;;;;;;17.80;43.94;102522.63;5111485;28;19912;-56
2022/03/28 06:59:31;;;;;;;;;;;;;;;17.80;43.71;102526.19;5121633;28;19908;-54
2022/03/28 07:01:57;;;;;;;;;;;;;;;17.78;43.71;102528.13;5123789;28;19919;-56
2022/03/28 07:04:22;;;;;;;;;;;;;;;17.79;43.57;102523.59;5118906;28;19998;-56
2022/03/28 07:06:48;;;;;;;;;;;;;;;17.77;43.63;102518.34;5118992;28;19979;-56
2022/03/28 07:09:13;;;;;;;;;;;;;;;17.77;43.86;102504.06;5121451;28;19915;-55
2022/03/28 07:11:38;;;;;;;;;;;;;;;17.77;43.85;102507.59;5121093;28;19978;-54
2022/03/28 07:14:03;;;;;;;;;;;;;;;17.76;43.80;102496.97;5124646;28;20428;-56
2022/03/28 07:16:28;;;;;;;;;;;;;;;17.75;43.53;102493.41;5124565;28;19907;-55
2022/03/28 07:18:53;;;;;;;;;;;;;;;17.75;43.59;102485.31;5124205;28;19973;-55
2022/03/28 07:21:19;;;;;;;;;;;;;;;17.74;43.58;102472.84;5106972;28;19935;-55
2022/03/28 07:23:44;;;;;;;;;;;;;;;17.75;43.60;102471.88;5124372;28;19922;-56
2022/03/28 07:26:09;;;;;;;;;;;;;;;17.73;43.62;102471.13;5124303;28;19907;-56
2022/03/28 07:28:38;;;;;;;;;;;;;;;17.74;43.71;102464.78;5111580;28;19908;-55
2022/03/28 07:31:05;;;;;;;;;;;;;;;17.73;43.51;102452.28;5120099;28;19912;-56
2022/03/28 07:33:30;;;;;;;;;;;;;;;17.73;43.46;102452.28;5119884;28;19919;-56
2022/03/28 07:35:55;;;;;;;;;;;;;;;17.73;43.59;102446.91;5115847;28;19974;-56
2022/03/28 07:38:20;;;;;;;;;;;;;;;17.72;43.59;102450.59;5123672;28;19918;-55
2022/03/28 07:40:46;;;;;;;;;;;;;;;17.72;43.35;102461.34;5123834;28;19912;-55
2022/03/28 07:43:11;;;;;;;;;;;;;;;17.72;43.55;102464.03;5124578;28;19927;-55
2022/03/28 07:45:36;;;;;;;;;;;;;;;17.71;43.49;102465.00;5124328;28;19908;-57
2022/03/28 07:48:02;;;;;;;;;;;;;;;17.71;43.53;102465.00;5124316;28;19978;-54
2022/03/28 07:50:27;;;;;;;;;;;;;;;17.70;43.54;102466.84;5124673;28;19915;-55
2022/03/28 07:52:52;;;;;;;;;;;;;;;17.71;43.44;102467.69;5124245;28;19911;-56
2022/03/28 07:55:17;;;;;;;;;;;;;;;17.70;43.55;102474.03;5124585;28;19961;-51
2022/03/28 07:57:43;;;;;;;;;;;;;;;17.70;43.50;102474.03;5123677;28;19942;-56
2022/03/28 08:00:12;;;;;;;;;;;;;;;17.69;43.47;102472.34;5124331;28;19953;-54
2022/03/28 08:02:38;;;;;;;;;;;;;;;17.69;43.31;102467.81;5123534;28;19918;-53
2022/03/28 08:05:04;;;;;;;;;;;;;;;17.68;43.38;102471.50;5124180;28;19912;-55
2022/03/28 08:07:29;;;;;;;;;;;;;;;17.69;43.31;102469.66;5115297;28;19992;-55
2022/03/28 08:09:55;;;;;;;;;;;;;;;17.69;43.47;102464.28;5120808;28;20322;-55
2022/03/28 08:12:20;;;;;;;;;;;;;;;17.69;43.09;102456.19;5123281;28;19912;-54
2022/03/28 08:14:45;;;;;;;;;;;;;;;17.69;43.32;102453.50;5120548;28;20005;-54
2022/03/28 08:17:11;;;;;;;;;;;;;;;17.70;43.14;102463.28;5119428;28;19941;-55
2022/03/28 08:19:36;;;;;;;;;;;;;;;17.69;43.37;102462.44;5121011;28;20356;-54
2022/03/28 08:22:01;;;;;;;;;;;;;;;17.69;43.30;102459.75;5114946;28;19919;-54
2022/03/28 08:24:26;;;;;;;;;;;;;;;17.69;43.19;102461.59;5122013;28;19977;-55
2022/03/28 08:26:51;;;;;;;;;;;;;;;17.69;43.35;102458.91;5123583;28;19912;-54
2022/03/28 08:29:17;;;;;;;;;;;;;;;17.68;43.31;102458.03;5123655;28;19914;-56
2022/03/28 08:31:42;;;;;;;;;;;;;;;17.68;43.22;102451.81;5122831;28;20550;-53
2022/03/28 08:34:07;;;;;;;;;;;;;;;17.70;43.35;102449.84;5127477;28;19916;-54
2022/03/28 08:36:33;;;;;;;;;;;;;;;17.69;43.37;102449.00;5127462;28;19914;-55
2022/03/28 08:38:58;;;;;;;;;;;;;;;17.68;43.30;102441.91;5119754;27;19912;-56
2022/03/28 08:41:23;;;;;;;;;;;;;;;17.67;43.52;102442.88;5117711;28;20010;-56
2022/03/28 08:43:48;;;;;;;;;;;;;;;17.68;43.28;102443.75;5124539;27;20516;-54
2022/03/28 08:46:15;;;;;;;;;;;;;;;17.68;43.41;102443.75;5120929;28;19960;-54
2022/03/28 08:48:40;;;;;;;;;;;;;;;17.67;43.54;102436.63;5127231;28;19907;-55
2022/03/28 08:51:06;;;;;;;;;;;;;;;17.66;43.63;102433.09;5125812;28;19964;-55
2022/03/28 08:53:31;;;;;;;;;;;;;;;17.66;43.55;102435.78;5127555;28;19956;-54
2022/03/28 08:55:57;;;;;;;;;;;;;;;17.65;43.43;102433.22;5127257;28;19908;-53
2022/03/28 08:58:22;;;;;;;;;;;;;;;17.65;43.58;102439.44;5126401;28;19917;-55
2022/03/28 09:00:47;;;;;;;;;;;;;;;17.65;43.46;102439.44;5126872;28;19918;-54
2022/03/28 09:03:12;;;;;;;;;;;;;;;17.64;43.47;102427.00;5127695;28;19933;-54
2022/03/28 09:05:38;;;;;;;;;;;;;;;17.63;43.59;102427.97;5127750;28;19916;-55
2022/03/28 09:08:04;;;;;;;;;;;;;;;17.63;43.41;102432.50;5127454;28;20443;-53
2022/03/28 09:10:33;;;;;;;;;;;;;;;17.63;43.39;102436.03;5127439;28;20271;-54
2022/03/28 09:13:03;;;;;;;;;;;;;;;17.63;43.47;102435.19;5126804;28;19916;-54
2022/03/28 09:15:47;;;;;;;;;;;;;;;17.63;43.55;102427.97;5126970;28;19915;-54
2022/03/28 09:18:22;;;;;;;;;;;;;;;17.63;43.24;102427.97;5127291;28;19935;-54
2022/03/28 09:20:52;;;;;;;;;;;;;;;17.62;43.47;102428.94;5126982;28;20336;-54
2022/03/28 09:23:29;;;;;;;;;;;;;;;17.63;43.33;102421.75;5127233;28;19947;-55
2022/03/28 09:25:54;;;;;;;;;;;;;;;17.64;43.34;102421.59;5126863;28;19926;-55
2022/03/28 09:28:40;;;;;;;;;;;;;;;17.65;43.33;102425.16;5127205;28;19908;-55
2022/03/28 09:31:15;;;;;;;;;;;;;;;17.65;43.33;102426.00;5124875;28;19911;-56
2022/03/28 09:33:50;;;;;;;;;;;;;;;17.64;43.17;102421.59;5127084;28;20497;-56
2022/03/28 09:36:15;;;;;;;;;;;;;;;17.66;43.24;102413.41;5127038;27;19912;-56
2022/03/28 09:38:54;;;;;;;;;;;;;;;17.66;43.29;102419.63;5126936;28;20276;-56
2022/03/28 09:41:19;;;;;;;;;;;;;;;17.67;43.23;102410.63;5126512;28;19915;-56
2022/03/28 09:43:44;;;;;;;;;;;;;;;17.68;43.29;102406.09;5124336;28;19908;-54
2022/03/28 09:46:09;;;;;;;;;;;;;;;17.68;43.26;102409.63;5125018;28;20443;-53
2022/03/28 09:48:37;;;;;;;;;;;;;;;17.68;43.02;102404.25;5126836;28;19907;-56
2022/03/28 09:51:04;;;;;;;;;;;;;;;17.69;43.28;102402.41;5125515;28;19912;-55
2022/03/28 09:53:36;;;;;;;;;;;;;;;17.69;43.13;102395.19;5126757;28;19934;-54
2022/03/28 09:56:03;;;;;;;;;;;;;;;17.70;43.11;102399.59;5126167;28;19961;-51
2022/03/28 09:58:36;;;;;;;;;;;;;;;17.71;43.02;102395.06;5126565;27;19908;-54
2022/03/28 10:01:02;;;;;;;;;;;;;;;17.71;43.21;102393.25;5125705;28;19908;-55
2022/03/28 10:03:33;;;;;;;;;;;;;;;17.72;43.02;102392.25;5125262;28;19908;-54
2022/03/28 10:05:59;;;;;;;;;;;;;;;17.74;43.18;102392.16;5126308;28;19907;-56
2022/03/28 10:08:24;;;;;;;;;;;;;;;17.74;42.98;102395.69;5126079;28;20002;-56
2022/03/28 10:10:49;;;;;;;;;;;;;;;17.76;42.86;102389.38;5124373;28;19937;-54
2022/03/28 10:13:15;;;;;;;;;;;;;;;17.78;42.97;102382.00;5124849;28;19916;-54
2022/03/28 10:15:40;;;;;;;;;;;;;;;17.80;42.98;102380.03;5124633;28;19908;-54
2022/03/28 10:18:05;;;;;;;;;;;;;;;17.81;42.72;102377.22;5125905;28;19915;-56
2022/03/28 10:20:30;;;;;;;;;;;;;;;17.84;42.94;102378.81;5126241;28;19914;-54
2022/03/28 10:22:56;;;;;;;;;;;;;;;17.85;42.82;102381.38;5126161;27;19911;-55
2022/03/28 10:25:22;;;;;;;;;;;;;;;17.88;42.59;102382.94;5124710;28;19922;-56
2022/03/28 10:27:47;;;;;;;;;;;;;;;17.89;42.70;102376.59;5125416;28;19975;-55
2022/03/28 10:30:17;;;;;;;;;;;;;;;17.90;42.61;102371.09;5124175;28;19907;-54
2022/03/28 10:32:42;;;;;;;;;;;;;;;17.93;42.43;102378.06;5125749;28;19970;-55
2022/03/28 10:35:08;;;;;;;;;;;;;;;17.94;42.36;102369.84;5125796;28;19912;-53
2022/03/28 10:37:40;;;;;;;;;;;;;;;17.96;42.43;102364.34;5125754;28;19950;-55
2022/03/28 10:40:24;;;;;;;;;;;;;;;17.97;42.38;102360.69;5125526;28;19930;-55
2022/03/28 10:42:49;;;;;;;;;;;;;;;17.98;42.53;102357.84;5125119;28;19907;-55
2022/03/28 10:45:19;;;;;;;;;;;;;;;18.00;42.56;102363.09;5122803;28;19923;-55
2022/03/28 10:47:44;;;;;;;;;;;;;;;18.01;42.29;102358.56;5105181;28;19991;-53
2022/03/28 10:50:13;;;;;;;;;;;;;;;18.02;42.38;102354.91;5105244;28;19908;-53
2022/03/28 10:52:56;;;;;;;;;;;;;;;18.03;42.45;102354.78;5103622;28;19916;-54
2022/03/28 10:55:21;;;;;;;;;;;;;;;18.04;42.13;102348.41;5103584;28;19908;-52
2022/03/28 10:57:46;;;;;;;;;;;;;;;18.06;42.25;102341.09;5102716;28;19908;-54
2022/03/28 11:00:12;;;;;;;;;;;;;;;18.08;42.23;102341.78;5104322;28;19908;-55
2022/03/28 11:02:37;;;;;;;;;;;;;;;18.10;42.07;102339.84;5125145;28;19908;-55
2022/03/28 11:05:07;;;;;;;;;;;;;;;18.11;42.09;102336.16;5125439;28;19914;-55
2022/03/28 11:07:32;;;;;;;;;;;;;;;18.13;42.17;102331.47;5125235;28;19972;-55
2022/03/28 11:10:04;;;;;;;;;;;;;;;18.14;42.12;102329.69;5124815;27;19907;-55
2022/03/28 11:12:30;;;;;;;;;;;;;;;18.15;42.14;102328.69;5124645;28;19936;-55
2022/03/28 11:15:02;;;;;;;;;;;;;;;18.15;42.13;102326.00;5124798;28;19958;-53
2022/03/28 11:17:31;;;;;;;;;;;;;;;18.17;42.06;102330.25;5125111;28;20038;-54
2022/03/28 11:19:57;;;;;;;;;;;;;;;18.19;41.90;102332.81;5125016;28;19923;-55
2022/03/28 11:22:38;;;;;;;;;;;;;;;18.20;41.91;102316.53;5125110;28;19922;-53
2022/03/28 11:25:04;;;;;;;;;;;;;;;18.22;42.08;102311.91;5124792;28;19916;-55
2022/03/28 11:27:30;;;;;;;;;;;;;;;18.23;41.90;102305.50;5124565;28;19995;-54
2022/03/28 11:29:59;;;;;;;;;;;;;;;18.24;41.83;102296.44;5124513;28;19927;-52
2022/03/28 11:32:25;;;;;;;;;;;;;;;18.26;41.99;102300.84;5123876;28;19922;-52
2022/03/28 11:34:51;;;;;;;;;;;;;;;18.27;42.11;102305.25;5123471;28;19930;-55
2022/03/28 11:37:17;;;;;;;;;;;;;;;18.28;41.85;102288.13;5124810;28;19907;-54
2022/03/28 11:39:52;;;;;;;;;;;;;;;18.30;41.86;102288.81;5124276;28;19912;-56
2022/03/28 11:42:27;;;;;;;;;;;;;;;18.31;42.01;102285.13;5124116;28;19928;-52
2022/03/28 11:44:53;;;;;;;;;;;;;;;18.33;41.92;102285.88;5124226;28;19970;-53
2022/03/28 11:47:18;;;;;;;;;;;;;;;18.34;42.08;102280.34;5104184;28;19930;-55
2022/03/28 11:50:10;;;;;;;;;;;;;;;18.36;41.92;102282.94;5104033;28;19908;-54
2022/03/28 11:52:35;;;;;;;;;;;;;;;18.37;41.95;102284.63;5100008;28;19911;-55
2022/03/28 11:55:00;;;;;;;;;;;;;;;18.39;41.82;102277.25;5104257;28;19930;-56
2022/03/28 12:00:15;;;;;;;;;;;;;;;18.42;42.10;102271.63;5105901;28;19922;-55
2022/03/28 12:02:47;;;;;;;;;;;;;;;18.42;42.06;102261.69;5124361;28;19923;-54
2022/03/28 12:05:12;;;;;;;;;;;;;;;18.44;42.13;102258.91;5124550;28;19915;-52
2022/03/28 12:07:38;;;;;;;;;;;;;;;18.45;42.21;102250.66;5127104;28;19908;-56
2022/03/28 12:10:03;;;;;;;;;;;;;;;18.46;42.16;102249.69;5128318;28;19919;-54
2022/03/28 12:12:28;;;;;;;;;;;;;;;18.47;41.85;102246.00;5128149;28;19920;-55
2022/03/28 12:14:54;;;;;;;;;;;;;;;18.49;42.06;102243.19;5127044;28;20444;-55
2022/03/28 12:17:29;;;;;;;;;;;;;;;18.49;42.08;102230.56;5128247;28;19908;-55
2022/03/28 12:20:04;;;;;;;;;;;;;;;18.52;42.28;102234.84;5128394;28;20311;-54
2022/03/28 12:22:29;;;;;;;;;;;;;;;18.55;42.14;102225.63;5128466;28;19908;-56
2022/03/28 12:24:56;;;;;;;;;;;;;;;18.58;42.23;102219.97;5126793;28;20044;-55
2022/03/28 12:27:23;;;;;;;;;;;;;;;18.59;41.92;102214.44;5127921;27;19932;-56
2022/03/28 12:29:51;;;;;;;;;;;;;;;18.62;42.06;102211.50;5128031;28;20360;-56
2022/03/28 12:32:17;;;;;;;;;;;;;;;18.66;42.06;102212.06;5126656;28;19911;-56
2022/03/28 12:34:42;;;;;;;;;;;;;;;18.69;42.13;102201.91;5128102;28;19922;-56
2022/03/28 12:37:07;;;;;;;;;;;;;;;18.73;41.90;102203.34;5126929;28;19994;-55